createdAt,value
2022-07-27T00:00:16.553Z,976.17
2022-07-27T00:01:16.648Z,976.17
2022-07-27T00:02:16.520Z,976.18
2022-07-27T00:03:16.512Z,976.14
2022-07-27T00:04:16.535Z,976.15
2022-07-27T00:05:16.481Z,976.16
2022-07-27T00:06:16.467Z,976.13
2022-07-27T00:07:16.460Z,976.28
2022-07-27T00:08:16.441Z,976.16
2022-07-27T00:09:16.438Z,976.16
2022-07-27T00:10:16.417Z,976.18
2022-07-27T00:11:16.415Z,976.31
2022-07-27T00:12:16.392Z,976.31
2022-07-27T00:13:16.386Z,976.29
2022-07-27T00:14:16.363Z,976.32
2022-07-27T00:15:16.357Z,976.30
2022-07-27T00:16:16.395Z,976.33
2022-07-27T00:17:16.331Z,976.33
2022-07-27T00:18:16.314Z,976.34
2022-07-27T00:19:16.306Z,976.30
2022-07-27T00:20:16.290Z,976.26
2022-07-27T00:21:16.283Z,976.27
2022-07-27T00:22:16.258Z,976.31
2022-07-27T00:23:16.250Z,976.30
2022-07-27T00:24:16.236Z,976.24
2022-07-27T00:25:16.352Z,976.34
2022-07-27T00:26:16.210Z,976.34
2022-07-27T00:27:16.195Z,976.33
2022-07-27T00:28:16.184Z,976.36
2022-07-27T00:29:16.196Z,976.28
2022-07-27T00:30:16.154Z,976.28
2022-07-27T00:31:16.272Z,976.31
2022-07-27T00:32:16.128Z,976.31
2022-07-27T00:33:17.170Z,976.27
2022-07-27T00:34:16.100Z,976.22
2022-07-27T00:35:16.090Z,976.29
2022-07-27T00:36:16.073Z,976.29
2022-07-27T00:37:16.060Z,976.26
2022-07-27T00:38:16.045Z,976.30
2022-07-27T00:39:16.043Z,976.29
2022-07-27T00:40:16.018Z,976.32
2022-07-27T00:41:16.012Z,976.30
2022-07-27T00:42:16.100Z,976.35
2022-07-27T00:43:15.994Z,976.28
2022-07-27T00:44:15.968Z,976.33
2022-07-27T00:45:15.958Z,976.26
2022-07-27T00:46:15.998Z,976.21
2022-07-27T00:47:15.932Z,976.25
2022-07-27T00:48:15.918Z,976.23
2022-07-27T00:49:16.537Z,976.16
2022-07-27T00:50:15.896Z,976.12
2022-07-27T00:51:15.880Z,976.11
2022-07-27T00:52:15.865Z,976.10
2022-07-27T00:53:15.857Z,976.11
2022-07-27T00:54:15.840Z,975.98
2022-07-27T00:55:15.825Z,976.09
2022-07-27T00:56:15.813Z,976.10
2022-07-27T00:57:15.800Z,976.13
2022-07-27T00:58:15.782Z,976.06
2022-07-27T00:59:15.772Z,976.07
2022-07-27T01:00:15.755Z,976.05
2022-07-27T01:01:15.745Z,976.02
2022-07-27T01:02:19.412Z,976.06
2022-07-27T01:03:16.313Z,975.97
2022-07-27T01:04:15.703Z,975.92
2022-07-27T01:05:15.696Z,975.94
2022-07-27T01:06:15.692Z,975.87
2022-07-27T01:07:15.674Z,975.94
2022-07-27T01:08:15.654Z,975.91
2022-07-27T01:09:15.640Z,975.89
2022-07-27T01:10:15.623Z,975.94
2022-07-27T01:11:15.617Z,975.93
2022-07-27T01:12:15.598Z,975.94
2022-07-27T01:13:15.598Z,975.96
2022-07-27T01:14:15.568Z,975.95
2022-07-27T01:15:15.564Z,975.88
2022-07-27T01:16:15.668Z,975.96
2022-07-27T01:17:15.535Z,975.92
2022-07-27T01:18:15.518Z,975.86
2022-07-27T01:19:15.822Z,975.88
2022-07-27T01:20:15.494Z,975.87
2022-07-27T01:21:15.478Z,975.97
2022-07-27T01:22:15.466Z,975.95
2022-07-27T01:23:15.451Z,976.00
2022-07-27T01:24:15.434Z,975.90
2022-07-27T01:25:15.428Z,975.93
2022-07-27T01:26:15.409Z,975.94
2022-07-27T01:27:15.401Z,975.84
2022-07-27T01:28:15.387Z,975.85
2022-07-27T01:29:15.626Z,975.88
2022-07-27T01:30:15.367Z,975.88
2022-07-27T01:31:15.442Z,975.88
2022-07-27T01:32:15.328Z,975.81
2022-07-27T01:33:15.325Z,975.79
2022-07-27T01:34:15.302Z,975.75
2022-07-27T01:35:15.291Z,975.87
2022-07-27T01:36:15.278Z,975.85
2022-07-27T01:37:15.274Z,975.90
2022-07-27T01:38:15.255Z,975.86
2022-07-27T01:39:15.653Z,975.87
2022-07-27T01:40:15.232Z,975.80
2022-07-27T01:41:15.222Z,975.85
2022-07-27T01:42:15.202Z,975.83
2022-07-27T01:43:15.191Z,975.86
2022-07-27T01:44:15.176Z,975.81
2022-07-27T01:45:15.161Z,975.82
2022-07-27T01:46:15.182Z,975.74
2022-07-27T01:47:15.333Z,975.74
2022-07-27T01:48:15.117Z,975.73
2022-07-27T01:49:15.937Z,975.73
2022-07-27T01:50:15.096Z,975.69
2022-07-27T01:51:15.086Z,975.73
2022-07-27T01:52:15.079Z,975.66
2022-07-27T01:53:15.059Z,975.70
2022-07-27T01:54:15.050Z,975.73
2022-07-27T01:55:15.033Z,975.73
2022-07-27T01:56:15.015Z,975.72
2022-07-27T01:57:15.004Z,975.74
2022-07-27T01:58:14.986Z,975.78
2022-07-27T01:59:16.164Z,975.77
2022-07-27T02:00:14.967Z,975.74
2022-07-27T02:01:15.014Z,975.71
2022-07-27T02:02:14.936Z,975.69
2022-07-27T02:03:14.919Z,975.73
2022-07-27T02:04:14.905Z,975.70
2022-07-27T02:05:14.987Z,975.66
2022-07-27T02:06:14.884Z,975.63
2022-07-27T02:07:14.869Z,975.64
2022-07-27T02:08:14.858Z,975.72
2022-07-27T02:09:15.157Z,975.62
2022-07-27T02:10:14.834Z,975.65
2022-07-27T02:11:14.824Z,975.76
2022-07-27T02:12:14.806Z,975.69
2022-07-27T02:13:22.427Z,975.72
2022-07-27T02:14:14.779Z,975.68
2022-07-27T02:15:15.707Z,975.73
2022-07-27T02:16:17.061Z,975.65
2022-07-27T02:17:14.737Z,975.73
2022-07-27T02:18:29.383Z,975.70
2022-07-27T02:19:16.400Z,975.72
2022-07-27T02:20:14.742Z,975.71
2022-07-27T02:21:14.682Z,975.73
2022-07-27T02:22:14.669Z,975.72
2022-07-27T02:23:14.685Z,975.70
2022-07-27T02:24:14.650Z,975.72
2022-07-27T02:25:14.633Z,975.71
2022-07-27T02:26:14.623Z,975.72
2022-07-27T02:27:14.607Z,975.74
2022-07-27T02:28:14.609Z,975.66
2022-07-27T02:29:15.014Z,975.65
2022-07-27T02:30:14.568Z,975.69
2022-07-27T02:31:14.551Z,975.65
2022-07-27T02:32:14.547Z,975.63
2022-07-27T02:33:14.591Z,975.62
2022-07-27T02:34:14.514Z,975.59
2022-07-27T02:35:18.548Z,975.57
2022-07-27T02:36:14.493Z,975.58
2022-07-27T02:37:14.479Z,975.57
2022-07-27T02:38:14.466Z,975.59
2022-07-27T02:39:14.768Z,975.60
2022-07-27T02:40:14.437Z,975.57
2022-07-27T02:41:14.417Z,975.51
2022-07-27T02:42:14.407Z,975.49
2022-07-27T02:43:14.393Z,975.53
2022-07-27T02:44:14.388Z,975.56
2022-07-27T02:45:14.371Z,975.48
2022-07-27T02:46:14.456Z,975.45
2022-07-27T02:47:14.338Z,975.44
2022-07-27T02:48:14.331Z,975.50
2022-07-27T02:49:15.024Z,975.46
2022-07-27T02:50:14.303Z,975.44
2022-07-27T02:51:14.289Z,975.52
2022-07-27T02:52:14.286Z,975.46
2022-07-27T02:53:14.262Z,975.60
2022-07-27T02:54:14.253Z,975.62
2022-07-27T02:55:14.238Z,975.67
2022-07-27T02:56:14.227Z,975.73
2022-07-27T02:57:14.211Z,975.73
2022-07-27T02:58:14.206Z,975.65
2022-07-27T02:59:14.608Z,975.71
2022-07-27T03:00:14.169Z,975.70
2022-07-27T03:01:14.212Z,975.68
2022-07-27T03:02:14.144Z,975.65
2022-07-27T03:03:14.126Z,975.71
2022-07-27T03:04:14.167Z,975.64
2022-07-27T03:05:14.099Z,975.66
2022-07-27T03:06:14.099Z,975.58
2022-07-27T03:07:14.073Z,975.61
2022-07-27T03:08:14.066Z,975.63
2022-07-27T03:09:14.504Z,975.61
2022-07-27T03:10:14.047Z,975.59
2022-07-27T03:11:14.025Z,975.64
2022-07-27T03:12:14.007Z,975.58
2022-07-27T03:13:13.995Z,975.60
2022-07-27T03:14:13.985Z,975.68
2022-07-27T03:15:13.968Z,975.68
2022-07-27T03:16:14.062Z,975.62
2022-07-27T03:17:13.942Z,975.65
2022-07-27T03:18:13.929Z,975.65
2022-07-27T03:19:14.384Z,975.66
2022-07-27T03:20:13.908Z,975.55
2022-07-27T03:21:13.888Z,975.57
2022-07-27T03:22:13.882Z,975.62
2022-07-27T03:23:13.864Z,975.53
2022-07-27T03:24:13.854Z,975.56
2022-07-27T03:25:13.832Z,975.51
2022-07-27T03:26:13.830Z,975.59
2022-07-27T03:27:13.809Z,975.58
2022-07-27T03:28:13.796Z,975.54
2022-07-27T03:29:14.287Z,975.49
2022-07-27T03:30:13.768Z,975.55
2022-07-27T03:31:13.794Z,975.49
2022-07-27T03:32:13.739Z,975.59
2022-07-27T03:33:13.727Z,975.62
2022-07-27T03:34:13.714Z,975.65
2022-07-27T03:35:13.703Z,975.60
2022-07-27T03:36:13.696Z,975.65
2022-07-27T03:37:13.669Z,975.67
2022-07-27T03:38:13.663Z,975.58
2022-07-27T03:39:14.062Z,975.66
2022-07-27T03:40:13.630Z,975.62
2022-07-27T03:41:13.620Z,975.70
2022-07-27T03:42:13.608Z,975.68
2022-07-27T03:43:13.593Z,975.68
2022-07-27T03:44:13.583Z,975.68
2022-07-27T03:45:13.567Z,975.65
2022-07-27T03:46:13.630Z,975.71
2022-07-27T03:47:13.539Z,975.72
2022-07-27T03:48:13.524Z,975.71
2022-07-27T03:49:14.480Z,975.69
2022-07-27T03:50:13.502Z,975.69
2022-07-27T03:51:13.491Z,975.67
2022-07-27T03:52:17.625Z,975.64
2022-07-27T03:53:13.461Z,975.63
2022-07-27T03:54:13.450Z,975.62
2022-07-27T03:55:13.431Z,975.63
2022-07-27T03:56:13.440Z,975.67
2022-07-27T03:57:13.409Z,975.67
2022-07-27T03:58:13.396Z,975.59
2022-07-27T03:59:13.845Z,975.64
2022-07-27T04:00:13.378Z,975.68
2022-07-27T04:01:13.447Z,975.73
2022-07-27T04:02:13.404Z,975.77
2022-07-27T04:03:13.325Z,975.77
2022-07-27T04:04:13.312Z,975.82
2022-07-27T04:05:13.292Z,975.70
2022-07-27T04:06:13.289Z,975.76
2022-07-27T04:07:13.270Z,975.71
2022-07-27T04:08:13.258Z,975.73
2022-07-27T04:09:14.132Z,975.72
2022-07-27T04:10:13.234Z,975.72
2022-07-27T04:11:13.262Z,975.80
2022-07-27T04:12:13.203Z,975.80
2022-07-27T04:13:13.199Z,975.81
2022-07-27T04:14:13.178Z,975.80
2022-07-27T04:15:13.158Z,975.76
2022-07-27T04:16:13.200Z,975.79
2022-07-27T04:17:13.215Z,975.82
2022-07-27T04:18:13.119Z,975.80
2022-07-27T04:19:13.695Z,975.81
2022-07-27T04:20:13.095Z,975.76
2022-07-27T04:21:13.076Z,975.76
2022-07-27T04:22:13.088Z,975.76
2022-07-27T04:23:13.057Z,975.84
2022-07-27T04:24:13.042Z,975.78
2022-07-27T04:25:13.028Z,975.74
2022-07-27T04:26:13.021Z,975.74
2022-07-27T04:27:13.006Z,975.80
2022-07-27T04:28:13.001Z,975.83
2022-07-27T04:29:16.885Z,975.84
2022-07-27T04:30:12.968Z,975.81
2022-07-27T04:31:13.024Z,975.85
2022-07-27T04:32:12.937Z,975.83
2022-07-27T04:33:12.924Z,975.86
2022-07-27T04:34:12.912Z,975.91
2022-07-27T04:35:12.891Z,975.87
2022-07-27T04:36:12.889Z,975.88
2022-07-27T04:37:12.866Z,975.84
2022-07-27T04:38:12.859Z,975.80
2022-07-27T04:39:13.261Z,975.88
2022-07-27T04:40:12.830Z,975.91
2022-07-27T04:41:12.827Z,975.94
2022-07-27T04:42:12.807Z,975.87
2022-07-27T04:43:12.787Z,975.91
2022-07-27T04:44:12.783Z,975.87
2022-07-27T04:45:12.774Z,975.86
2022-07-27T04:46:15.313Z,975.93
2022-07-27T04:47:12.742Z,975.91
2022-07-27T04:48:12.722Z,975.91
2022-07-27T04:49:13.121Z,975.89
2022-07-27T04:50:12.707Z,975.97
2022-07-27T04:51:12.683Z,975.93
2022-07-27T04:52:12.672Z,975.93
2022-07-27T04:53:12.659Z,975.96
2022-07-27T04:54:12.642Z,976.01
2022-07-27T04:55:12.629Z,976.00
2022-07-27T04:56:12.617Z,976.00
2022-07-27T04:57:12.607Z,976.06
2022-07-27T04:58:12.593Z,976.04
2022-07-27T04:59:13.152Z,976.12
2022-07-27T05:00:12.561Z,976.08
2022-07-27T05:01:12.626Z,976.10
2022-07-27T05:02:12.544Z,976.11
2022-07-27T05:03:12.522Z,976.13
2022-07-27T05:04:12.626Z,976.12
2022-07-27T05:05:12.501Z,976.00
2022-07-27T05:06:12.481Z,976.08
2022-07-27T05:07:12.468Z,976.08
2022-07-27T05:08:12.462Z,976.03
2022-07-27T05:09:12.982Z,976.05
2022-07-27T05:10:16.578Z,976.03
2022-07-27T05:11:13.441Z,976.07
2022-07-27T05:12:12.400Z,976.09
2022-07-27T05:13:12.390Z,976.08
2022-07-27T05:14:12.392Z,976.07
2022-07-27T05:15:12.362Z,976.05
2022-07-27T05:16:12.417Z,976.06
2022-07-27T05:17:12.335Z,976.09
2022-07-27T05:18:12.326Z,976.09
2022-07-27T05:19:12.689Z,976.01
2022-07-27T05:20:12.299Z,976.03
2022-07-27T05:21:12.280Z,976.06
2022-07-27T05:22:12.274Z,976.04
2022-07-27T05:23:12.257Z,975.99
2022-07-27T05:24:12.242Z,976.01
2022-07-27T05:25:12.255Z,975.99
2022-07-27T05:26:12.217Z,975.98
2022-07-27T05:27:12.210Z,976.05
2022-07-27T05:28:12.215Z,975.97
2022-07-27T05:29:12.593Z,976.06
2022-07-27T05:30:12.176Z,976.12
2022-07-27T05:31:12.143Z,976.10
2022-07-27T05:32:12.165Z,976.10
2022-07-27T05:33:12.127Z,976.08
2022-07-27T05:34:12.106Z,976.07
2022-07-27T05:35:12.098Z,976.08
2022-07-27T05:36:12.090Z,976.15
2022-07-27T05:37:12.071Z,976.24
2022-07-27T05:38:12.057Z,976.21
2022-07-27T05:39:13.972Z,976.18
2022-07-27T05:40:12.034Z,976.16
2022-07-27T05:41:12.019Z,976.20
2022-07-27T05:42:12.004Z,976.22
2022-07-27T05:43:11.984Z,976.19
2022-07-27T05:44:11.980Z,976.21
2022-07-27T05:45:11.960Z,976.22
2022-07-27T05:46:11.989Z,976.27
2022-07-27T05:47:11.959Z,976.19
2022-07-27T05:48:11.926Z,976.27
2022-07-27T05:49:12.150Z,976.25
2022-07-27T05:50:11.902Z,976.25
2022-07-27T05:51:11.881Z,976.25
2022-07-27T05:52:11.869Z,976.19
2022-07-27T05:53:12.053Z,976.22
2022-07-27T05:54:11.851Z,976.16
2022-07-27T05:55:11.837Z,976.22
2022-07-27T05:56:11.828Z,976.19
2022-07-27T05:57:11.812Z,976.22
2022-07-27T05:58:11.793Z,976.21
2022-07-27T05:59:12.136Z,976.17
2022-07-27T06:00:11.771Z,976.15
2022-07-27T06:01:11.834Z,976.17
2022-07-27T06:02:11.735Z,976.24
2022-07-27T06:03:11.784Z,976.21
2022-07-27T06:04:14.525Z,976.28
2022-07-27T06:05:15.533Z,976.30
2022-07-27T06:06:11.689Z,976.33
2022-07-27T06:07:11.671Z,976.34
2022-07-27T06:08:11.656Z,976.32
2022-07-27T06:09:12.192Z,976.23
2022-07-27T06:10:11.635Z,976.28
2022-07-27T06:11:11.621Z,976.30
2022-07-27T06:12:11.605Z,976.31
2022-07-27T06:13:11.596Z,976.25
2022-07-27T06:14:11.583Z,976.32
2022-07-27T06:15:11.569Z,976.30
2022-07-27T06:16:11.621Z,976.37
2022-07-27T06:17:11.537Z,976.33
2022-07-27T06:18:11.535Z,976.36
2022-07-27T06:19:11.808Z,976.41
2022-07-27T06:20:11.503Z,976.29
2022-07-27T06:21:11.485Z,976.29
2022-07-27T06:22:11.477Z,976.30
2022-07-27T06:23:11.470Z,976.18
2022-07-27T06:24:11.458Z,976.20
2022-07-27T06:25:11.436Z,976.24
2022-07-27T06:26:11.426Z,976.26
2022-07-27T06:27:11.408Z,976.25
2022-07-27T06:28:11.399Z,976.19
2022-07-27T06:29:11.638Z,976.26
2022-07-27T06:30:11.372Z,976.17
2022-07-27T06:31:11.427Z,976.19
2022-07-27T06:32:11.506Z,976.25
2022-07-27T06:33:11.340Z,976.21
2022-07-27T06:34:11.775Z,976.27
2022-07-27T06:35:11.314Z,976.23
2022-07-27T06:36:11.296Z,976.20
2022-07-27T06:37:11.285Z,976.22
2022-07-27T06:38:11.271Z,976.19
2022-07-27T06:39:11.613Z,976.19
2022-07-27T06:40:11.236Z,976.15
2022-07-27T06:41:11.234Z,976.18
2022-07-27T06:42:11.213Z,976.08
2022-07-27T06:43:11.209Z,976.14
2022-07-27T06:44:11.195Z,976.21
2022-07-27T06:45:11.176Z,976.15
2022-07-27T06:46:11.166Z,976.15
2022-07-27T06:47:11.313Z,976.19
2022-07-27T06:48:11.135Z,976.21
2022-07-27T06:49:11.602Z,976.12
2022-07-27T06:50:11.112Z,976.18
2022-07-27T06:51:11.108Z,976.18
2022-07-27T06:52:11.080Z,976.18
2022-07-27T06:53:11.081Z,976.22
2022-07-27T06:54:11.052Z,976.15
2022-07-27T06:55:11.049Z,976.05
2022-07-27T06:56:11.032Z,976.10
2022-07-27T06:57:11.258Z,976.16
2022-07-27T06:58:11.019Z,976.08
2022-07-27T06:59:11.296Z,976.13
2022-07-27T07:00:10.987Z,976.18
2022-07-27T07:01:11.062Z,976.19
2022-07-27T07:02:10.950Z,976.10
2022-07-27T07:03:10.945Z,976.12
2022-07-27T07:04:10.985Z,976.13
2022-07-27T07:05:11.018Z,976.20
2022-07-27T07:06:10.899Z,976.21
2022-07-27T07:07:10.902Z,976.14
2022-07-27T07:08:10.869Z,976.18
2022-07-27T07:09:11.239Z,976.13
2022-07-27T07:10:10.852Z,976.18
2022-07-27T07:11:10.854Z,976.17
2022-07-27T07:12:10.826Z,976.20
2022-07-27T07:13:10.809Z,976.14
2022-07-27T07:14:10.799Z,976.11
2022-07-27T07:15:10.788Z,976.14
2022-07-27T07:16:10.821Z,976.17
2022-07-27T07:17:10.757Z,976.17
2022-07-27T07:18:10.753Z,976.17
2022-07-27T07:19:11.086Z,976.18
2022-07-27T07:20:10.717Z,976.11
2022-07-27T07:21:10.711Z,976.15
2022-07-27T07:22:10.689Z,976.16
2022-07-27T07:23:10.688Z,976.12
2022-07-27T07:24:10.666Z,976.12
2022-07-27T07:25:10.659Z,976.07
2022-07-27T07:26:10.647Z,976.07
2022-07-27T07:27:10.639Z,976.13
2022-07-27T07:28:10.624Z,976.16
2022-07-27T07:29:11.000Z,976.11
2022-07-27T07:30:10.589Z,976.09
2022-07-27T07:31:10.608Z,976.15
2022-07-27T07:32:10.566Z,976.23
2022-07-27T07:33:10.559Z,976.18
2022-07-27T07:34:10.552Z,976.16
2022-07-27T07:35:10.533Z,976.18
2022-07-27T07:36:13.713Z,976.15
2022-07-27T07:37:10.511Z,976.12
2022-07-27T07:38:10.497Z,976.14
2022-07-27T07:39:10.916Z,976.09
2022-07-27T07:40:41.508Z,976.05
2022-07-27T07:41:11.472Z,976.02
2022-07-27T07:42:10.985Z,976.07
2022-07-27T07:43:10.433Z,976.11
2022-07-27T07:44:10.432Z,976.10
2022-07-27T07:45:10.404Z,976.08
2022-07-27T07:46:10.481Z,976.00
2022-07-27T07:47:10.441Z,976.05
2022-07-27T07:48:10.366Z,976.13
2022-07-27T07:49:11.009Z,976.05
2022-07-27T07:50:10.342Z,976.02
2022-07-27T07:51:10.324Z,976.08
2022-07-27T07:52:10.314Z,976.10
2022-07-27T07:53:10.301Z,976.10
2022-07-27T07:54:10.290Z,976.16
2022-07-27T07:55:10.274Z,976.10
2022-07-27T07:56:10.262Z,976.11
2022-07-27T07:57:10.252Z,976.12
2022-07-27T07:58:10.587Z,976.10
2022-07-27T07:59:10.575Z,976.09
2022-07-27T08:00:10.210Z,976.09
2022-07-27T08:01:10.196Z,976.01
2022-07-27T08:02:10.253Z,976.13
2022-07-27T08:03:10.331Z,976.14
2022-07-27T08:04:10.158Z,976.08
2022-07-27T08:05:10.141Z,976.06
2022-07-27T08:06:10.129Z,976.13
2022-07-27T08:07:10.113Z,976.11
2022-07-27T08:08:10.102Z,976.21
2022-07-27T08:09:10.523Z,976.16
2022-07-27T08:10:10.071Z,976.11
2022-07-27T08:11:10.063Z,976.09
2022-07-27T08:12:10.053Z,976.11
2022-07-27T08:13:10.043Z,976.12
2022-07-27T08:14:10.023Z,976.11
2022-07-27T08:15:10.015Z,976.08
2022-07-27T08:16:10.075Z,976.05
2022-07-27T08:17:09.989Z,976.06
2022-07-27T08:18:09.977Z,976.18
2022-07-27T08:19:10.208Z,976.01
2022-07-27T08:20:09.943Z,976.07
2022-07-27T08:21:09.941Z,976.02
2022-07-27T08:22:09.920Z,975.98
2022-07-27T08:23:09.915Z,976.03
2022-07-27T08:24:09.904Z,975.90
2022-07-27T08:25:09.889Z,976.06
2022-07-27T08:26:09.873Z,976.11
2022-07-27T08:27:09.863Z,976.02
2022-07-27T08:28:09.850Z,976.06
2022-07-27T08:29:13.762Z,976.08
2022-07-27T08:30:09.823Z,976.01
2022-07-27T08:31:15.242Z,976.01
2022-07-27T08:32:09.883Z,975.93
2022-07-27T08:33:09.791Z,975.92
2022-07-27T08:34:09.772Z,976.04
2022-07-27T08:35:09.770Z,976.09
2022-07-27T08:36:09.742Z,975.95
2022-07-27T08:37:14.958Z,975.95
2022-07-27T08:38:09.736Z,975.93
2022-07-27T08:39:09.963Z,975.93
2022-07-27T08:41:09.694Z,975.97
2022-07-27T08:42:09.672Z,976.07
2022-07-27T08:43:09.669Z,976.08
2022-07-27T08:44:09.653Z,976.02
2022-07-27T08:45:09.652Z,975.92
2022-07-27T08:46:10.706Z,975.88
2022-07-27T08:47:09.723Z,975.89
2022-07-27T08:48:09.597Z,975.93
2022-07-27T08:49:09.970Z,975.92
2022-07-27T08:50:09.573Z,975.94
2022-07-27T08:51:09.569Z,975.93
2022-07-27T08:52:09.546Z,975.96
2022-07-27T08:53:09.581Z,975.93
2022-07-27T08:54:09.524Z,975.91
2022-07-27T08:55:09.510Z,975.99
2022-07-27T08:56:09.493Z,975.96
2022-07-27T08:57:09.481Z,975.93
2022-07-27T08:58:09.488Z,975.98
2022-07-27T08:59:09.656Z,976.00
2022-07-27T09:00:09.441Z,975.98
2022-07-27T09:01:09.429Z,976.00
2022-07-27T09:02:09.492Z,975.94
2022-07-27T09:03:13.209Z,975.99
2022-07-27T09:04:10.417Z,975.98
2022-07-27T09:05:09.376Z,975.98
2022-07-27T09:06:09.359Z,975.98
2022-07-27T09:07:09.349Z,975.92
2022-07-27T09:08:09.334Z,975.92
2022-07-27T09:09:09.495Z,975.95
2022-07-27T09:10:09.313Z,975.91
2022-07-27T09:11:09.297Z,975.86
2022-07-27T09:12:09.303Z,975.85
2022-07-27T09:13:09.281Z,975.88
2022-07-27T09:14:09.260Z,975.95
2022-07-27T09:15:09.251Z,975.92
2022-07-27T09:16:18.613Z,975.84
2022-07-27T09:17:47.356Z,975.92
2022-07-27T09:18:10.283Z,975.76
2022-07-27T09:19:09.390Z,975.83
2022-07-27T09:20:12.017Z,975.95
2022-07-27T09:21:09.180Z,975.84
2022-07-27T09:22:09.162Z,975.74
2022-07-27T09:23:09.153Z,975.68
2022-07-27T09:24:18.060Z,975.78
2022-07-27T09:25:10.149Z,975.78
2022-07-27T09:26:20.461Z,975.79
2022-07-27T09:27:09.102Z,975.87
2022-07-27T09:28:09.086Z,975.77
2022-07-27T09:29:09.394Z,975.75
2022-07-27T09:30:09.055Z,975.74
2022-07-27T09:31:09.203Z,975.71
2022-07-27T09:32:09.036Z,975.73
2022-07-27T09:33:09.023Z,975.75
2022-07-27T09:34:09.013Z,975.82
2022-07-27T09:35:09.019Z,975.73
2022-07-27T09:36:08.983Z,975.76
2022-07-27T09:37:08.978Z,975.79
2022-07-27T09:38:08.961Z,975.81
2022-07-27T09:39:08.953Z,975.86
2022-07-27T09:40:08.935Z,975.86
2022-07-27T09:41:08.932Z,975.79
2022-07-27T09:42:09.342Z,975.81
2022-07-27T09:43:52.321Z,975.88
2022-07-27T09:45:08.880Z,975.87
2022-07-27T09:46:08.893Z,975.74
2022-07-27T09:47:08.856Z,975.83
2022-07-27T09:48:08.838Z,975.81
2022-07-27T09:49:08.871Z,975.84
2022-07-27T09:50:08.815Z,975.86
2022-07-27T09:51:55.636Z,975.82
2022-07-27T09:52:08.794Z,975.89
2022-07-27T09:53:40.815Z,975.78
2022-07-27T09:54:08.995Z,975.94
2022-07-27T09:55:08.775Z,975.87
2022-07-27T09:56:08.747Z,975.91
2022-07-27T09:57:08.729Z,975.88
2022-07-27T09:58:10.042Z,975.83
2022-07-27T09:59:08.703Z,975.81
2022-07-27T10:00:08.686Z,975.85
2022-07-27T10:01:08.692Z,975.92
2022-07-27T10:02:08.832Z,975.86
2022-07-27T10:03:08.653Z,975.86
2022-07-27T10:04:09.020Z,975.92
2022-07-27T10:05:08.693Z,975.86
2022-07-27T10:06:08.613Z,975.87
2022-07-27T10:07:12.684Z,975.89
2022-07-27T10:08:08.698Z,975.94
2022-07-27T10:09:08.575Z,975.81
2022-07-27T10:10:08.563Z,975.85
2022-07-27T10:11:08.555Z,975.82
2022-07-27T10:12:08.568Z,975.90
2022-07-27T10:13:08.536Z,975.99
2022-07-27T10:14:08.561Z,975.88
2022-07-27T10:15:08.512Z,975.88
2022-07-27T10:16:08.556Z,975.77
2022-07-27T10:17:08.483Z,975.85
2022-07-27T10:18:08.470Z,975.88
2022-07-27T10:19:08.712Z,975.91
2022-07-27T10:20:08.444Z,975.83
2022-07-27T10:21:08.431Z,975.71
2022-07-27T10:22:08.415Z,975.75
2022-07-27T10:23:08.415Z,975.81
2022-07-27T10:24:08.397Z,975.69
2022-07-27T10:25:08.381Z,975.74
2022-07-27T10:26:08.368Z,975.87
2022-07-27T10:27:08.360Z,975.98
2022-07-27T10:28:08.344Z,975.79
2022-07-27T10:29:08.427Z,975.72
2022-07-27T10:30:08.324Z,975.83
2022-07-27T10:31:08.354Z,975.84
2022-07-27T10:32:08.295Z,975.80
2022-07-27T10:33:08.292Z,975.85
2022-07-27T10:34:08.605Z,975.97
2022-07-27T10:35:08.268Z,975.80
2022-07-27T10:36:09.662Z,975.92
2022-07-27T10:37:08.243Z,975.80
2022-07-27T10:38:08.230Z,975.71
2022-07-27T10:39:08.223Z,975.76
2022-07-27T10:40:08.209Z,975.90
2022-07-27T10:41:08.196Z,975.76
2022-07-27T10:42:08.182Z,975.78
2022-07-27T10:43:08.177Z,975.77
2022-07-27T10:44:08.270Z,975.87
2022-07-27T10:45:08.324Z,975.80
2022-07-27T10:46:08.192Z,975.75
2022-07-27T10:47:08.124Z,975.81
2022-07-27T10:48:08.108Z,975.70
2022-07-27T10:49:08.277Z,975.64
2022-07-27T10:50:08.084Z,975.68
2022-07-27T10:51:08.073Z,975.74
2022-07-27T10:52:08.055Z,975.66
2022-07-27T10:53:08.046Z,975.72
2022-07-27T10:54:12.287Z,975.68
2022-07-27T10:55:08.025Z,975.71
2022-07-27T10:56:08.017Z,975.65
2022-07-27T10:57:08.007Z,975.81
2022-07-27T10:58:07.996Z,975.75
2022-07-27T10:59:07.975Z,975.68
2022-07-27T11:00:11.022Z,975.60
2022-07-27T11:01:09.047Z,975.61
2022-07-27T11:02:07.940Z,975.68
2022-07-27T11:03:07.933Z,975.67
2022-07-27T11:04:07.974Z,975.67
2022-07-27T11:05:09.025Z,975.70
2022-07-27T11:06:31.315Z,975.75
2022-07-27T11:07:25.006Z,975.74
2022-07-27T11:08:36.547Z,975.78
2022-07-27T11:10:07.884Z,975.73
2022-07-27T11:11:07.853Z,975.75
2022-07-27T11:12:07.830Z,975.77
2022-07-27T11:13:09.975Z,975.83
2022-07-27T11:14:07.795Z,975.69
2022-07-27T11:15:07.779Z,975.78
2022-07-27T11:16:24.707Z,975.71
2022-07-27T11:18:07.825Z,975.62
2022-07-27T11:19:07.798Z,975.77
2022-07-27T11:20:07.734Z,975.68
2022-07-27T11:21:07.736Z,975.58
2022-07-27T11:22:27.673Z,975.66
2022-07-27T11:23:50.064Z,975.53
2022-07-27T11:24:08.812Z,975.54
2022-07-27T11:25:07.662Z,975.53
2022-07-27T11:26:07.643Z,975.57
2022-07-27T11:27:17.163Z,975.58
2022-07-27T11:28:08.671Z,975.51
2022-07-27T11:29:07.616Z,975.54
2022-07-27T11:30:07.683Z,975.56
2022-07-27T11:31:07.613Z,975.59
2022-07-27T11:32:07.599Z,975.54
2022-07-27T11:33:07.563Z,975.59
2022-07-27T11:34:07.550Z,975.60
2022-07-27T11:35:10.939Z,975.60
2022-07-27T11:36:07.525Z,975.58
2022-07-27T11:37:07.512Z,975.59
2022-07-27T11:38:07.501Z,975.67
2022-07-27T11:39:07.486Z,975.65
2022-07-27T11:40:28.191Z,975.60
2022-07-27T11:41:15.304Z,975.67
2022-07-27T11:42:08.033Z,975.61
2022-07-27T11:43:07.440Z,975.58
2022-07-27T11:44:07.433Z,975.62
2022-07-27T11:45:07.418Z,975.59
2022-07-27T11:46:07.486Z,975.61
2022-07-27T11:47:07.390Z,975.60
2022-07-27T11:48:07.377Z,975.72
2022-07-27T11:49:08.760Z,975.60
2022-07-27T11:50:07.519Z,975.54
2022-07-27T11:51:07.354Z,975.59
2022-07-27T11:52:07.420Z,975.55
2022-07-27T11:53:07.335Z,975.55
2022-07-27T11:54:07.324Z,975.52
2022-07-27T11:55:07.438Z,975.52
2022-07-27T11:56:07.285Z,975.60
2022-07-27T11:57:07.272Z,975.50
2022-07-27T11:58:07.271Z,975.58
2022-07-27T11:59:13.688Z,975.54
2022-07-27T12:00:07.692Z,975.47
2022-07-27T12:01:07.305Z,975.43
2022-07-27T12:02:07.288Z,975.46
2022-07-27T12:03:07.616Z,975.54
2022-07-27T12:04:07.206Z,975.51
2022-07-27T12:05:07.426Z,975.52
2022-07-27T12:06:07.148Z,975.43
2022-07-27T12:07:07.142Z,975.53
2022-07-27T12:08:07.327Z,975.55
2022-07-27T12:09:07.633Z,975.50
2022-07-27T12:10:07.159Z,975.49
2022-07-27T12:11:07.110Z,975.47
2022-07-27T12:12:07.106Z,975.46
2022-07-27T12:13:07.133Z,975.37
2022-07-27T12:14:07.105Z,975.38
2022-07-27T12:15:28.068Z,975.42
2022-07-27T12:16:07.027Z,975.39
2022-07-27T12:17:07.326Z,975.38
2022-07-27T12:18:07.151Z,975.35
2022-07-27T12:19:07.017Z,975.31
2022-07-27T12:20:06.978Z,975.39
2022-07-27T12:21:06.985Z,975.39
2022-07-27T12:22:07.053Z,975.33
2022-07-27T12:23:07.089Z,975.41
2022-07-27T12:24:06.920Z,975.37
2022-07-27T12:25:16.106Z,975.40
2022-07-27T12:26:06.903Z,975.40
2022-07-27T12:27:07.073Z,975.46
2022-07-27T12:28:06.869Z,975.45
2022-07-27T12:29:06.856Z,975.50
2022-07-27T12:30:06.853Z,975.45
2022-07-27T12:31:06.887Z,975.39
2022-07-27T12:32:06.828Z,975.37